Terminal Aerodrome Forecast
Issued by NWS Charleston, WV

Current Version | Previous Version | Text Only | Print | Product List | Glossary Off
Versions: 1 2 3 4 5 6 7 8 9 10 11 12 13 14 15 16 17 18 19 20 21 22 23 24 25 26

000
FTUS41 KRLX 011100
TAFPKB
TAF
KPKB 011134Z 0112/0212 00000KT P6SM -SN OVC035
     FM011300 00000KT 2SM -SN OVC015
     FM011500 VRB03KT 2SM -FZRASNPL BR OVC012
     FM011700 19004KT 4SM -RA BR OVC015=

USA.gov is the U.S. government's official web portal to all federal, state and local government web resources and services.